sensor_id;sensor_type;location;lat;lon;timestamp;P1;durP1;ratioP1;P2;durP2;ratioP2
56820;SDS011;42702;50.178;20.992;2022-08-24T00:01:59;18.80;;;5.30;;
56820;SDS011;42702;50.178;20.992;2022-08-24T00:04:28;16.40;;;5.80;;
56820;SDS011;42702;50.178;20.992;2022-08-24T00:06:59;22.70;;;5.20;;
56820;SDS011;42702;50.178;20.992;2022-08-24T00:09:29;18.60;;;4.80;;
56820;SDS011;42702;50.178;20.992;2022-08-24T00:11:59;17.90;;;4.70;;
56820;SDS011;42702;50.178;20.992;2022-08-24T00:14:28;21.40;;;5.50;;
56820;SDS011;42702;50.178;20.992;2022-08-24T00:16:57;16.80;;;5.70;;
56820;SDS011;42702;50.178;20.992;2022-08-24T00:19:26;14.40;;;5.20;;
56820;SDS011;42702;50.178;20.992;2022-08-24T00:21:55;17.60;;;5.70;;
56820;SDS011;42702;50.178;20.992;2022-08-24T00:24:23;18.30;;;6.00;;
56820;SDS011;42702;50.178;20.992;2022-08-24T00:26:52;23.00;;;5.60;;
56820;SDS011;42702;50.178;20.992;2022-08-24T00:29:21;18.40;;;5.40;;
56820;SDS011;42702;50.178;20.992;2022-08-24T00:31:49;16.00;;;5.20;;
56820;SDS011;42702;50.178;20.992;2022-08-24T00:34:18;21.50;;;5.60;;
56820;SDS011;42702;50.178;20.992;2022-08-24T00:36:46;22.20;;;6.60;;
56820;SDS011;42702;50.178;20.992;2022-08-24T00:39:14;15.20;;;5.80;;
56820;SDS011;42702;50.178;20.992;2022-08-24T00:41:44;21.10;;;6.20;;
56820;SDS011;42702;50.178;20.992;2022-08-24T00:44:14;20.70;;;6.00;;
56820;SDS011;42702;50.178;20.992;2022-08-24T00:46:52;18.30;;;5.10;;
56820;SDS011;42702;50.178;20.992;2022-08-24T00:49:35;19.40;;;6.10;;
56820;SDS011;42702;50.178;20.992;2022-08-24T00:54:43;15.90;;;8.00;;
56820;SDS011;42702;50.178;20.992;2022-08-24T00:57:15;22.50;;;8.40;;
56820;SDS011;42702;50.178;20.992;2022-08-24T00:59:48;25.70;;;8.60;;
56820;SDS011;42702;50.178;20.992;2022-08-24T01:02:22;24.00;;;9.60;;
56820;SDS011;42702;50.178;20.992;2022-08-24T01:05:01;21.00;;;9.70;;
56820;SDS011;42702;50.178;20.992;2022-08-24T01:07:33;22.10;;;8.80;;
56820;SDS011;42702;50.178;20.992;2022-08-24T01:10:13;18.60;;;9.70;;
56820;SDS011;42702;50.178;20.992;2022-08-24T01:12:48;19.40;;;9.30;;
56820;SDS011;42702;50.178;20.992;2022-08-24T01:15:28;15.70;;;8.50;;
56820;SDS011;42702;50.178;20.992;2022-08-24T01:18:00;19.90;;;8.90;;
56820;SDS011;42702;50.178;20.992;2022-08-24T01:21:52;16.90;;;8.20;;
56820;SDS011;42702;50.178;20.992;2022-08-24T01:23:54;15.00;;;9.30;;
56820;SDS011;42702;50.178;20.992;2022-08-24T01:26:47;19.70;;;8.50;;
56820;SDS011;42702;50.178;20.992;2022-08-24T01:29:16;18.60;;;8.10;;
56820;SDS011;42702;50.178;20.992;2022-08-24T01:31:50;17.50;;;8.10;;
56820;SDS011;42702;50.178;20.992;2022-08-24T01:34:19;20.80;;;8.60;;
56820;SDS011;42702;50.178;20.992;2022-08-24T01:36:50;17.50;;;8.80;;
56820;SDS011;42702;50.178;20.992;2022-08-24T01:39:28;19.20;;;9.10;;
56820;SDS011;42702;50.178;20.992;2022-08-24T01:41:59;17.80;;;9.10;;
56820;SDS011;42702;50.178;20.992;2022-08-24T01:44:30;19.20;;;9.00;;
56820;SDS011;42702;50.178;20.992;2022-08-24T01:47:05;21.10;;;8.70;;
56820;SDS011;42702;50.178;20.992;2022-08-24T01:49:40;19.30;;;9.90;;
56820;SDS011;42702;50.178;20.992;2022-08-24T01:52:11;18.60;;;8.60;;
56820;SDS011;42702;50.178;20.992;2022-08-24T01:54:42;20.20;;;9.10;;
56820;SDS011;42702;50.178;20.992;2022-08-24T01:57:11;16.70;;;8.60;;
56820;SDS011;42702;50.178;20.992;2022-08-24T01:59:44;17.90;;;9.20;;
56820;SDS011;42702;50.178;20.992;2022-08-24T02:02:15;19.00;;;8.60;;
56820;SDS011;42702;50.178;20.992;2022-08-24T02:04:46;24.20;;;9.30;;
56820;SDS011;42702;50.178;20.992;2022-08-24T02:07:15;25.80;;;9.00;;
56820;SDS011;42702;50.178;20.992;2022-08-24T02:09:43;15.70;;;8.90;;
56820;SDS011;42702;50.178;20.992;2022-08-24T02:12:14;25.20;;;9.50;;
56820;SDS011;42702;50.178;20.992;2022-08-24T02:14:43;17.60;;;8.50;;
56820;SDS011;42702;50.178;20.992;2022-08-24T02:17:11;21.40;;;8.80;;
56820;SDS011;42702;50.178;20.992;2022-08-24T02:19:40;17.50;;;8.30;;
56820;SDS011;42702;50.178;20.992;2022-08-24T02:22:08;20.90;;;9.30;;
56820;SDS011;42702;50.178;20.992;2022-08-24T02:24:37;21.20;;;9.70;;
56820;SDS011;42702;50.178;20.992;2022-08-24T02:27:07;20.70;;;8.90;;
56820;SDS011;42702;50.178;20.992;2022-08-24T02:29:35;15.80;;;8.80;;
56820;SDS011;42702;50.178;20.992;2022-08-24T02:32:04;18.50;;;9.10;;
56820;SDS011;42702;50.178;20.992;2022-08-24T02:34:34;21.10;;;9.70;;
56820;SDS011;42702;50.178;20.992;2022-08-24T02:37:03;21.90;;;9.20;;
56820;SDS011;42702;50.178;20.992;2022-08-24T02:39:32;17.90;;;9.50;;
56820;SDS011;42702;50.178;20.992;2022-08-24T02:42:02;19.30;;;9.70;;
56820;SDS011;42702;50.178;20.992;2022-08-24T02:44:31;25.40;;;10.00;;
56820;SDS011;42702;50.178;20.992;2022-08-24T02:46:59;18.30;;;10.40;;
56820;SDS011;42702;50.178;20.992;2022-08-24T02:49:29;17.80;;;10.80;;
56820;SDS011;42702;50.178;20.992;2022-08-24T02:51:58;22.70;;;12.30;;
56820;SDS011;42702;50.178;20.992;2022-08-24T02:54:27;19.60;;;11.20;;
56820;SDS011;42702;50.178;20.992;2022-08-24T02:56:55;22.30;;;11.60;;
56820;SDS011;42702;50.178;20.992;2022-08-24T02:59:24;27.10;;;12.20;;
56820;SDS011;42702;50.178;20.992;2022-08-24T03:01:52;23.20;;;12.80;;
56820;SDS011;42702;50.178;20.992;2022-08-24T03:04:22;30.60;;;13.10;;
56820;SDS011;42702;50.178;20.992;2022-08-24T03:06:50;25.90;;;13.00;;
56820;SDS011;42702;50.178;20.992;2022-08-24T03:09:19;24.90;;;12.70;;
56820;SDS011;42702;50.178;20.992;2022-08-24T03:11:50;21.80;;;12.10;;
56820;SDS011;42702;50.178;20.992;2022-08-24T03:14:18;26.50;;;12.30;;
56820;SDS011;42702;50.178;20.992;2022-08-24T03:16:47;22.70;;;12.40;;
56820;SDS011;42702;50.178;20.992;2022-08-24T03:19:16;23.50;;;11.70;;
56820;SDS011;42702;50.178;20.992;2022-08-24T03:21:45;22.10;;;12.10;;
56820;SDS011;42702;50.178;20.992;2022-08-24T03:24:13;18.10;;;11.20;;
56820;SDS011;42702;50.178;20.992;2022-08-24T03:26:42;19.10;;;11.10;;
56820;SDS011;42702;50.178;20.992;2022-08-24T03:29:25;18.10;;;11.60;;
56820;SDS011;42702;50.178;20.992;2022-08-24T03:31:54;16.60;;;12.10;;
56820;SDS011;42702;50.178;20.992;2022-08-24T03:34:26;21.80;;;13.30;;
56820;SDS011;42702;50.178;20.992;2022-08-24T03:36:54;17.20;;;11.80;;
56820;SDS011;42702;50.178;20.992;2022-08-24T03:39:23;18.30;;;11.90;;
56820;SDS011;42702;50.178;20.992;2022-08-24T03:41:52;19.40;;;13.30;;
56820;SDS011;42702;50.178;20.992;2022-08-24T03:46:53;20.60;;;12.80;;
56820;SDS011;42702;50.178;20.992;2022-08-24T03:49:22;18.70;;;13.00;;
56820;SDS011;42702;50.178;20.992;2022-08-24T03:51:51;18.90;;;11.70;;
56820;SDS011;42702;50.178;20.992;2022-08-24T03:54:21;20.70;;;13.30;;
56820;SDS011;42702;50.178;20.992;2022-08-24T03:56:50;24.30;;;13.10;;
56820;SDS011;42702;50.178;20.992;2022-08-24T03:59:19;18.30;;;12.20;;
56820;SDS011;42702;50.178;20.992;2022-08-24T04:01:49;17.00;;;11.20;;
56820;SDS011;42702;50.178;20.992;2022-08-24T04:04:17;20.10;;;13.30;;
56820;SDS011;42702;50.178;20.992;2022-08-24T04:06:46;21.20;;;14.20;;
56820;SDS011;42702;50.178;20.992;2022-08-24T04:09:15;23.00;;;13.60;;
56820;SDS011;42702;50.178;20.992;2022-08-24T04:11:46;21.50;;;13.50;;
56820;SDS011;42702;50.178;20.992;2022-08-24T04:14:20;23.60;;;14.70;;
56820;SDS011;42702;50.178;20.992;2022-08-24T04:17:01;21.10;;;14.70;;
56820;SDS011;42702;50.178;20.992;2022-08-24T04:19:34;22.60;;;13.50;;
56820;SDS011;42702;50.178;20.992;2022-08-24T04:22:03;22.60;;;14.40;;
56820;SDS011;42702;50.178;20.992;2022-08-24T04:24:31;24.20;;;14.20;;
56820;SDS011;42702;50.178;20.992;2022-08-24T04:26:59;23.90;;;14.00;;
56820;SDS011;42702;50.178;20.992;2022-08-24T04:29:27;25.00;;;14.40;;
56820;SDS011;42702;50.178;20.992;2022-08-24T04:31:56;30.00;;;14.80;;
56820;SDS011;42702;50.178;20.992;2022-08-24T04:34:26;30.50;;;15.70;;
56820;SDS011;42702;50.178;20.992;2022-08-24T04:36:56;26.90;;;15.70;;
56820;SDS011;42702;50.178;20.992;2022-08-24T04:39:26;24.90;;;15.60;;
56820;SDS011;42702;50.178;20.992;2022-08-24T04:42:06;28.90;;;15.00;;
56820;SDS011;42702;50.178;20.992;2022-08-24T04:44:37;26.10;;;15.30;;
56820;SDS011;42702;50.178;20.992;2022-08-24T04:47:06;29.30;;;15.80;;
56820;SDS011;42702;50.178;20.992;2022-08-24T04:49:37;30.40;;;15.00;;
56820;SDS011;42702;50.178;20.992;2022-08-24T04:52:06;30.60;;;14.60;;
56820;SDS011;42702;50.178;20.992;2022-08-24T04:54:38;27.30;;;14.40;;
56820;SDS011;42702;50.178;20.992;2022-08-24T04:57:26;31.00;;;15.70;;
56820;SDS011;42702;50.178;20.992;2022-08-24T04:59:55;35.10;;;16.70;;
56820;SDS011;42702;50.178;20.992;2022-08-24T05:02:24;31.80;;;15.10;;
56820;SDS011;42702;50.178;20.992;2022-08-24T05:04:55;32.00;;;16.90;;
56820;SDS011;42702;50.178;20.992;2022-08-24T05:07:26;31.30;;;15.80;;
56820;SDS011;42702;50.178;20.992;2022-08-24T05:09:54;32.70;;;15.40;;
56820;SDS011;42702;50.178;20.992;2022-08-24T05:12:23;34.20;;;15.80;;
56820;SDS011;42702;50.178;20.992;2022-08-24T05:14:58;33.80;;;14.80;;
56820;SDS011;42702;50.178;20.992;2022-08-24T05:17:28;31.30;;;14.60;;
56820;SDS011;42702;50.178;20.992;2022-08-24T05:19:56;31.40;;;15.50;;
56820;SDS011;42702;50.178;20.992;2022-08-24T05:22:25;32.10;;;15.40;;
56820;SDS011;42702;50.178;20.992;2022-08-24T05:24:54;36.80;;;15.70;;
56820;SDS011;42702;50.178;20.992;2022-08-24T05:27:23;26.60;;;14.50;;
56820;SDS011;42702;50.178;20.992;2022-08-24T05:29:55;30.70;;;15.60;;
56820;SDS011;42702;50.178;20.992;2022-08-24T05:34:52;31.60;;;15.40;;
56820;SDS011;42702;50.178;20.992;2022-08-24T05:37:21;29.90;;;14.70;;
56820;SDS011;42702;50.178;20.992;2022-08-24T05:40:15;29.10;;;14.70;;
56820;SDS011;42702;50.178;20.992;2022-08-24T05:42:53;34.10;;;15.70;;
56820;SDS011;42702;50.178;20.992;2022-08-24T05:45:21;33.60;;;14.60;;
56820;SDS011;42702;50.178;20.992;2022-08-24T05:47:50;39.20;;;16.10;;
56820;SDS011;42702;50.178;20.992;2022-08-24T05:50:41;33.30;;;16.00;;
56820;SDS011;42702;50.178;20.992;2022-08-24T05:53:11;30.80;;;13.60;;
56820;SDS011;42702;50.178;20.992;2022-08-24T05:55:40;33.20;;;14.50;;
56820;SDS011;42702;50.178;20.992;2022-08-24T05:58:08;31.40;;;13.80;;
56820;SDS011;42702;50.178;20.992;2022-08-24T06:00:39;29.00;;;13.40;;
56820;SDS011;42702;50.178;20.992;2022-08-24T06:03:08;30.10;;;14.60;;
56820;SDS011;42702;50.178;20.992;2022-08-24T06:05:48;26.90;;;12.90;;
56820;SDS011;42702;50.178;20.992;2022-08-24T06:08:16;29.50;;;14.00;;
56820;SDS011;42702;50.178;20.992;2022-08-24T06:10:45;27.90;;;13.40;;
56820;SDS011;42702;50.178;20.992;2022-08-24T06:13:18;31.10;;;14.80;;
56820;SDS011;42702;50.178;20.992;2022-08-24T06:15:46;32.30;;;15.20;;
56820;SDS011;42702;50.178;20.992;2022-08-24T06:18:36;30.20;;;14.90;;
56820;SDS011;42702;50.178;20.992;2022-08-24T06:21:07;29.80;;;15.70;;
56820;SDS011;42702;50.178;20.992;2022-08-24T06:23:39;34.60;;;16.10;;
56820;SDS011;42702;50.178;20.992;2022-08-24T06:26:09;36.20;;;15.90;;
56820;SDS011;42702;50.178;20.992;2022-08-24T06:28:57;34.30;;;16.00;;
56820;SDS011;42702;50.178;20.992;2022-08-24T06:31:27;37.40;;;15.10;;
56820;SDS011;42702;50.178;20.992;2022-08-24T06:34:06;36.00;;;16.00;;
56820;SDS011;42702;50.178;20.992;2022-08-24T06:36:35;34.10;;;14.40;;
56820;SDS011;42702;50.178;20.992;2022-08-24T06:39:07;39.30;;;15.40;;
56820;SDS011;42702;50.178;20.992;2022-08-24T06:41:38;35.60;;;15.80;;
56820;SDS011;42702;50.178;20.992;2022-08-24T06:44:10;33.90;;;15.20;;
56820;SDS011;42702;50.178;20.992;2022-08-24T06:46:48;37.00;;;16.30;;
56820;SDS011;42702;50.178;20.992;2022-08-24T06:49:20;37.70;;;16.70;;
56820;SDS011;42702;50.178;20.992;2022-08-24T06:51:48;30.50;;;16.60;;
56820;SDS011;42702;50.178;20.992;2022-08-24T06:54:18;38.90;;;17.70;;
56820;SDS011;42702;50.178;20.992;2022-08-24T06:56:49;33.80;;;14.80;;
56820;SDS011;42702;50.178;20.992;2022-08-24T06:59:18;36.70;;;16.90;;
56820;SDS011;42702;50.178;20.992;2022-08-24T07:01:47;40.20;;;16.70;;
56820;SDS011;42702;50.178;20.992;2022-08-24T07:04:16;33.30;;;16.50;;
56820;SDS011;42702;50.178;20.992;2022-08-24T07:07:04;34.60;;;15.50;;
56820;SDS011;42702;50.178;20.992;2022-08-24T07:09:33;35.40;;;15.80;;
56820;SDS011;42702;50.178;20.992;2022-08-24T07:12:01;26.10;;;14.30;;
56820;SDS011;42702;50.178;20.992;2022-08-24T07:14:30;34.90;;;16.70;;
56820;SDS011;42702;50.178;20.992;2022-08-24T07:16:59;28.90;;;14.80;;
56820;SDS011;42702;50.178;20.992;2022-08-24T07:21:59;31.30;;;15.10;;
56820;SDS011;42702;50.178;20.992;2022-08-24T07:24:28;36.30;;;15.70;;
56820;SDS011;42702;50.178;20.992;2022-08-24T07:26:56;34.30;;;15.60;;
56820;SDS011;42702;50.178;20.992;2022-08-24T07:29:25;30.90;;;14.70;;
56820;SDS011;42702;50.178;20.992;2022-08-24T07:32:15;32.90;;;16.30;;
56820;SDS011;42702;50.178;20.992;2022-08-24T07:34:45;41.70;;;15.90;;
56820;SDS011;42702;50.178;20.992;2022-08-24T07:37:13;40.30;;;15.20;;
56820;SDS011;42702;50.178;20.992;2022-08-24T07:39:45;34.70;;;16.40;;
56820;SDS011;42702;50.178;20.992;2022-08-24T07:42:15;35.50;;;15.30;;
56820;SDS011;42702;50.178;20.992;2022-08-24T07:44:54;31.10;;;14.70;;
56820;SDS011;42702;50.178;20.992;2022-08-24T07:47:23;52.20;;;15.70;;
56820;SDS011;42702;50.178;20.992;2022-08-24T07:52:44;30.50;;;14.90;;
56820;SDS011;42702;50.178;20.992;2022-08-24T07:55:13;34.30;;;15.70;;
56820;SDS011;42702;50.178;20.992;2022-08-24T07:57:43;36.20;;;15.10;;
56820;SDS011;42702;50.178;20.992;2022-08-24T08:00:13;41.30;;;15.40;;
56820;SDS011;42702;50.178;20.992;2022-08-24T08:02:46;42.60;;;14.80;;
56820;SDS011;42702;50.178;20.992;2022-08-24T08:05:18;34.40;;;14.00;;
56820;SDS011;42702;50.178;20.992;2022-08-24T08:07:51;31.00;;;13.00;;
56820;SDS011;42702;50.178;20.992;2022-08-24T08:10:19;38.20;;;13.50;;
56820;SDS011;42702;50.178;20.992;2022-08-24T08:12:51;42.10;;;14.10;;
56820;SDS011;42702;50.178;20.992;2022-08-24T08:15:20;41.50;;;13.70;;
56820;SDS011;42702;50.178;20.992;2022-08-24T08:17:55;35.90;;;12.20;;
56820;SDS011;42702;50.178;20.992;2022-08-24T08:20:23;37.50;;;13.00;;
56820;SDS011;42702;50.178;20.992;2022-08-24T08:22:51;37.30;;;13.20;;
56820;SDS011;42702;50.178;20.992;2022-08-24T08:25:38;38.90;;;13.60;;
56820;SDS011;42702;50.178;20.992;2022-08-24T08:28:15;37.10;;;13.40;;
56820;SDS011;42702;50.178;20.992;2022-08-24T08:30:53;45.60;;;12.90;;
56820;SDS011;42702;50.178;20.992;2022-08-24T08:33:23;34.10;;;13.10;;
56820;SDS011;42702;50.178;20.992;2022-08-24T08:36:06;31.00;;;13.00;;
56820;SDS011;42702;50.178;20.992;2022-08-24T08:38:41;36.40;;;12.60;;
56820;SDS011;42702;50.178;20.992;2022-08-24T08:41:21;35.40;;;13.40;;
56820;SDS011;42702;50.178;20.992;2022-08-24T08:44:14;32.90;;;12.80;;
56820;SDS011;42702;50.178;20.992;2022-08-24T08:46:58;42.50;;;13.50;;
56820;SDS011;42702;50.178;20.992;2022-08-24T08:55:41;33.00;;;12.10;;
56820;SDS011;42702;50.178;20.992;2022-08-24T09:00:59;36.20;;;12.50;;
56820;SDS011;42702;50.178;20.992;2022-08-24T09:11:54;34.10;;;12.70;;
56820;SDS011;42702;50.178;20.992;2022-08-24T09:26:50;29.90;;;11.80;;
56820;SDS011;42702;50.178;20.992;2022-08-24T09:29:22;33.30;;;13.10;;
56820;SDS011;42702;50.178;20.992;2022-08-24T09:32:24;35.10;;;10.70;;
56820;SDS011;42702;50.178;20.992;2022-08-24T09:35:11;31.60;;;11.20;;
56820;SDS011;42702;50.178;20.992;2022-08-24T09:38:04;39.30;;;12.90;;
56820;SDS011;42702;50.178;20.992;2022-08-24T09:58:00;36.90;;;13.60;;
56820;SDS011;42702;50.178;20.992;2022-08-24T10:06:47;43.90;;;13.50;;
56820;SDS011;42702;50.178;20.992;2022-08-24T10:09:51;37.20;;;12.00;;
56820;SDS011;42702;50.178;20.992;2022-08-24T10:15:13;29.20;;;12.60;;
56820;SDS011;42702;50.178;20.992;2022-08-24T10:32:30;36.50;;;12.00;;
56820;SDS011;42702;50.178;20.992;2022-08-24T10:35:21;39.60;;;11.80;;
56820;SDS011;42702;50.178;20.992;2022-08-24T10:54:43;37.80;;;12.50;;
56820;SDS011;42702;50.178;20.992;2022-08-24T10:57:26;35.20;;;11.60;;
56820;SDS011;42702;50.178;20.992;2022-08-24T11:02:52;35.30;;;11.40;;
56820;SDS011;42702;50.178;20.992;2022-08-24T11:05:37;37.20;;;11.50;;
56820;SDS011;42702;50.178;20.992;2022-08-24T11:08:09;38.50;;;11.80;;
56820;SDS011;42702;50.178;20.992;2022-08-24T11:11:01;37.00;;;10.80;;
56820;SDS011;42702;50.178;20.992;2022-08-24T11:13:31;34.90;;;10.90;;
56820;SDS011;42702;50.178;20.992;2022-08-24T11:16:01;39.70;;;11.10;;
56820;SDS011;42702;50.178;20.992;2022-08-24T11:18:44;44.30;;;11.30;;
56820;SDS011;42702;50.178;20.992;2022-08-24T11:21:20;41.80;;;10.70;;
56820;SDS011;42702;50.178;20.992;2022-08-24T11:24:09;42.10;;;11.30;;
56820;SDS011;42702;50.178;20.992;2022-08-24T11:26:57;43.40;;;9.70;;
56820;SDS011;42702;50.178;20.992;2022-08-24T11:35:49;43.30;;;12.40;;
56820;SDS011;42702;50.178;20.992;2022-08-24T11:40:32;40.90;;;10.50;;
56820;SDS011;42702;50.178;20.992;2022-08-24T11:43:19;42.70;;;11.00;;
56820;SDS011;42702;50.178;20.992;2022-08-24T11:51:29;49.10;;;10.60;;
56820;SDS011;42702;50.178;20.992;2022-08-24T11:59:32;51.10;;;11.30;;
56820;SDS011;42702;50.178;20.992;2022-08-24T12:13:35;44.90;;;9.80;;
56820;SDS011;42702;50.178;20.992;2022-08-24T12:16:25;47.30;;;11.10;;
56820;SDS011;42702;50.178;20.992;2022-08-24T12:19:30;37.50;;;9.20;;
56820;SDS011;42702;50.178;20.992;2022-08-24T12:22:04;37.00;;;10.50;;
56820;SDS011;42702;50.178;20.992;2022-08-24T12:24:37;39.40;;;10.30;;
56820;SDS011;42702;50.178;20.992;2022-08-24T12:27:11;46.60;;;9.70;;
56820;SDS011;42702;50.178;20.992;2022-08-24T12:29:47;45.40;;;10.60;;
56820;SDS011;42702;50.178;20.992;2022-08-24T12:32:27;41.30;;;10.60;;
56820;SDS011;42702;50.178;20.992;2022-08-24T12:37:59;37.80;;;9.40;;
56820;SDS011;42702;50.178;20.992;2022-08-24T12:40:51;39.10;;;8.40;;
56820;SDS011;42702;50.178;20.992;2022-08-24T12:43:26;41.30;;;9.20;;
56820;SDS011;42702;50.178;20.992;2022-08-24T12:46:02;44.50;;;10.50;;
56820;SDS011;42702;50.178;20.992;2022-08-24T12:48:38;37.10;;;9.50;;
56820;SDS011;42702;50.178;20.992;2022-08-24T12:51:24;35.80;;;8.90;;
56820;SDS011;42702;50.178;20.992;2022-08-24T12:56:44;48.90;;;9.30;;
56820;SDS011;42702;50.178;20.992;2022-08-24T12:59:36;41.80;;;9.70;;
56820;SDS011;42702;50.178;20.992;2022-08-24T13:02:07;40.10;;;9.50;;
56820;SDS011;42702;50.178;20.992;2022-08-24T13:04:58;38.80;;;9.50;;
56820;SDS011;42702;50.178;20.992;2022-08-24T13:07:40;33.90;;;9.70;;
56820;SDS011;42702;50.178;20.992;2022-08-24T13:10:15;34.60;;;10.00;;
56820;SDS011;42702;50.178;20.992;2022-08-24T13:31:35;32.10;;;8.10;;
56820;SDS011;42702;50.178;20.992;2022-08-24T13:39:18;38.50;;;9.10;;
56820;SDS011;42702;50.178;20.992;2022-08-24T13:53:43;36.80;;;9.30;;
56820;SDS011;42702;50.178;20.992;2022-08-24T14:02:35;37.10;;;10.20;;
56820;SDS011;42702;50.178;20.992;2022-08-24T14:05:10;40.80;;;10.60;;
56820;SDS011;42702;50.178;20.992;2022-08-24T14:15:58;39.10;;;7.90;;
56820;SDS011;42702;50.178;20.992;2022-08-24T14:24:38;20.40;;;4.80;;
56820;SDS011;42702;50.178;20.992;2022-08-24T14:33:08;27.30;;;4.60;;
56820;SDS011;42702;50.178;20.992;2022-08-24T14:46:47;16.20;;;3.10;;
56820;SDS011;42702;50.178;20.992;2022-08-24T14:49:28;15.70;;;3.80;;
56820;SDS011;42702;50.178;20.992;2022-08-24T14:54:55;16.30;;;3.90;;
56820;SDS011;42702;50.178;20.992;2022-08-24T15:11:47;16.20;;;4.70;;
56820;SDS011;42702;50.178;20.992;2022-08-24T15:14:20;15.70;;;4.70;;
56820;SDS011;42702;50.178;20.992;2022-08-24T15:16:51;14.70;;;4.80;;
56820;SDS011;42702;50.178;20.992;2022-08-24T15:19:34;16.10;;;4.00;;
56820;SDS011;42702;50.178;20.992;2022-08-24T15:22:23;23.00;;;4.60;;
56820;SDS011;42702;50.178;20.992;2022-08-24T15:31:06;20.30;;;3.70;;
56820;SDS011;42702;50.178;20.992;2022-08-24T15:33:57;22.50;;;4.20;;
56820;SDS011;42702;50.178;20.992;2022-08-24T15:36:29;11.00;;;3.10;;
56820;SDS011;42702;50.178;20.992;2022-08-24T15:39:00;11.90;;;4.00;;
56820;SDS011;42702;50.178;20.992;2022-08-24T15:41:38;16.20;;;3.70;;
56820;SDS011;42702;50.178;20.992;2022-08-24T15:44:15;9.00;;;3.10;;
56820;SDS011;42702;50.178;20.992;2022-08-24T15:46:53;16.20;;;3.80;;
56820;SDS011;42702;50.178;20.992;2022-08-24T15:49:33;14.60;;;3.60;;
56820;SDS011;42702;50.178;20.992;2022-08-24T15:55:29;12.60;;;3.50;;
56820;SDS011;42702;50.178;20.992;2022-08-24T16:01:02;15.30;;;3.50;;
56820;SDS011;42702;50.178;20.992;2022-08-24T16:10:41;20.60;;;6.20;;
56820;SDS011;42702;50.178;20.992;2022-08-24T16:18:25;14.00;;;4.20;;
56820;SDS011;42702;50.178;20.992;2022-08-24T16:21:56;13.50;;;5.10;;
56820;SDS011;42702;50.178;20.992;2022-08-24T16:27:04;14.00;;;4.20;;
56820;SDS011;42702;50.178;20.992;2022-08-24T16:34:54;11.70;;;3.60;;
56820;SDS011;42702;50.178;20.992;2022-08-24T16:37:41;13.20;;;3.70;;
56820;SDS011;42702;50.178;20.992;2022-08-24T16:40:10;17.80;;;4.60;;
56820;SDS011;42702;50.178;20.992;2022-08-24T16:42:38;16.50;;;3.60;;
56820;SDS011;42702;50.178;20.992;2022-08-24T16:45:08;14.40;;;4.20;;
56820;SDS011;42702;50.178;20.992;2022-08-24T16:47:39;13.50;;;4.00;;
56820;SDS011;42702;50.178;20.992;2022-08-24T16:50:07;12.90;;;3.70;;
56820;SDS011;42702;50.178;20.992;2022-08-24T16:52:35;13.40;;;3.90;;
56820;SDS011;42702;50.178;20.992;2022-08-24T16:55:04;16.90;;;4.20;;
56820;SDS011;42702;50.178;20.992;2022-08-24T16:57:33;21.30;;;4.50;;
56820;SDS011;42702;50.178;20.992;2022-08-24T17:00:06;14.70;;;3.90;;
56820;SDS011;42702;50.178;20.992;2022-08-24T17:02:36;14.00;;;4.30;;
56820;SDS011;42702;50.178;20.992;2022-08-24T17:05:05;19.10;;;4.80;;
56820;SDS011;42702;50.178;20.992;2022-08-24T17:07:36;14.60;;;4.60;;
56820;SDS011;42702;50.178;20.992;2022-08-24T17:10:05;21.20;;;4.10;;
56820;SDS011;42702;50.178;20.992;2022-08-24T17:12:36;19.90;;;5.10;;
56820;SDS011;42702;50.178;20.992;2022-08-24T17:15:05;15.50;;;4.20;;
56820;SDS011;42702;50.178;20.992;2022-08-24T17:17:35;14.10;;;4.40;;
56820;SDS011;42702;50.178;20.992;2022-08-24T17:20:05;18.80;;;4.90;;
56820;SDS011;42702;50.178;20.992;2022-08-24T17:22:38;23.50;;;4.60;;
56820;SDS011;42702;50.178;20.992;2022-08-24T17:25:06;22.30;;;4.50;;
56820;SDS011;42702;50.178;20.992;2022-08-24T17:27:35;18.00;;;4.20;;
56820;SDS011;42702;50.178;20.992;2022-08-24T17:30:03;13.60;;;4.90;;
56820;SDS011;42702;50.178;20.992;2022-08-24T17:32:32;16.30;;;4.30;;
56820;SDS011;42702;50.178;20.992;2022-08-24T17:35:00;17.30;;;4.70;;
56820;SDS011;42702;50.178;20.992;2022-08-24T17:37:30;14.50;;;5.60;;
56820;SDS011;42702;50.178;20.992;2022-08-24T17:39:59;17.30;;;5.10;;
56820;SDS011;42702;50.178;20.992;2022-08-24T17:42:28;19.60;;;5.20;;
56820;SDS011;42702;50.178;20.992;2022-08-24T17:45:16;20.20;;;6.00;;
56820;SDS011;42702;50.178;20.992;2022-08-24T17:47:44;14.70;;;4.90;;
56820;SDS011;42702;50.178;20.992;2022-08-24T17:50:13;21.00;;;5.20;;
56820;SDS011;42702;50.178;20.992;2022-08-24T17:52:43;19.90;;;5.30;;
56820;SDS011;42702;50.178;20.992;2022-08-24T17:55:12;19.10;;;5.00;;
56820;SDS011;42702;50.178;20.992;2022-08-24T17:57:42;18.70;;;4.90;;
56820;SDS011;42702;50.178;20.992;2022-08-24T18:00:15;14.20;;;5.30;;
56820;SDS011;42702;50.178;20.992;2022-08-24T18:02:44;18.00;;;4.90;;
56820;SDS011;42702;50.178;20.992;2022-08-24T18:05:12;21.70;;;5.90;;
56820;SDS011;42702;50.178;20.992;2022-08-24T18:07:48;22.30;;;5.70;;
56820;SDS011;42702;50.178;20.992;2022-08-24T18:10:22;19.30;;;5.10;;
56820;SDS011;42702;50.178;20.992;2022-08-24T18:12:55;41.20;;;10.50;;
56820;SDS011;42702;50.178;20.992;2022-08-24T18:15:25;18.50;;;5.60;;
56820;SDS011;42702;50.178;20.992;2022-08-24T18:18:05;18.30;;;4.70;;
56820;SDS011;42702;50.178;20.992;2022-08-24T18:20:38;17.50;;;5.20;;
56820;SDS011;42702;50.178;20.992;2022-08-24T18:23:08;20.20;;;5.40;;
56820;SDS011;42702;50.178;20.992;2022-08-24T18:25:43;16.80;;;5.50;;
56820;SDS011;42702;50.178;20.992;2022-08-24T18:28:16;13.10;;;5.10;;
56820;SDS011;42702;50.178;20.992;2022-08-24T18:30:50;17.00;;;5.50;;
56820;SDS011;42702;50.178;20.992;2022-08-24T18:33:19;19.40;;;6.20;;
56820;SDS011;42702;50.178;20.992;2022-08-24T18:35:47;21.70;;;7.00;;
56820;SDS011;42702;50.178;20.992;2022-08-24T18:38:15;16.10;;;5.70;;
56820;SDS011;42702;50.178;20.992;2022-08-24T18:40:43;17.10;;;6.10;;
56820;SDS011;42702;50.178;20.992;2022-08-24T18:43:19;13.90;;;5.20;;
56820;SDS011;42702;50.178;20.992;2022-08-24T18:45:50;19.70;;;5.50;;
56820;SDS011;42702;50.178;20.992;2022-08-24T18:48:19;15.00;;;5.30;;
56820;SDS011;42702;50.178;20.992;2022-08-24T18:50:49;16.00;;;5.20;;
56820;SDS011;42702;50.178;20.992;2022-08-24T18:53:18;15.10;;;5.10;;
56820;SDS011;42702;50.178;20.992;2022-08-24T18:55:47;20.80;;;5.80;;
56820;SDS011;42702;50.178;20.992;2022-08-24T18:58:16;16.20;;;5.10;;
56820;SDS011;42702;50.178;20.992;2022-08-24T19:00:44;21.50;;;5.00;;
56820;SDS011;42702;50.178;20.992;2022-08-24T19:03:15;21.00;;;6.20;;
56820;SDS011;42702;50.178;20.992;2022-08-24T19:05:45;16.60;;;5.60;;
56820;SDS011;42702;50.178;20.992;2022-08-24T19:08:13;19.70;;;5.60;;
56820;SDS011;42702;50.178;20.992;2022-08-24T19:10:42;18.00;;;5.50;;
56820;SDS011;42702;50.178;20.992;2022-08-24T19:13:11;19.70;;;6.00;;
56820;SDS011;42702;50.178;20.992;2022-08-24T19:15:45;16.40;;;5.40;;